createdAt,value
2017-12-16T00:00:56.216Z,1022.2
2017-12-16T00:01:57.954Z,1022.2
2017-12-16T00:02:59.674Z,1022.2
2017-12-16T00:04:01.412Z,1022.1
2017-12-16T00:05:03.191Z,1022.2
2017-12-16T00:06:04.966Z,1022.2
2017-12-16T00:07:06.816Z,1022.2
2017-12-16T00:08:08.553Z,1022.2
2017-12-16T00:09:10.270Z,1022.3
2017-12-16T00:10:12.048Z,1022.2
2017-12-16T00:11:13.791Z,1022.3
2017-12-16T00:12:15.529Z,1022.2
2017-12-16T00:13:17.293Z,1022.2
2017-12-16T00:14:19.036Z,1022.2
2017-12-16T00:15:20.790Z,1022.2
2017-12-16T00:16:22.515Z,1022.2
2017-12-16T00:17:24.262Z,1022.2
2017-12-16T00:18:26.024Z,1022.2
2017-12-16T00:19:27.745Z,1022.3
2017-12-16T00:20:29.463Z,1022.3
2017-12-16T00:21:31.200Z,1022.3
2017-12-16T00:22:32.912Z,1022.3
2017-12-16T00:23:34.638Z,1022.3
2017-12-16T00:24:36.389Z,1022.3
2017-12-16T00:25:38.130Z,1022.3
2017-12-16T00:26:39.887Z,1022.4
2017-12-16T00:27:41.607Z,1022.4
2017-12-16T00:28:43.335Z,1022.4
2017-12-16T00:29:45.057Z,1022.4
2017-12-16T00:30:46.827Z,1022.4
2017-12-16T00:31:48.524Z,1022.3
2017-12-16T00:32:50.300Z,1022.3
2017-12-16T00:33:52.053Z,1022.3
2017-12-16T00:34:53.845Z,1022.3
2017-12-16T00:35:55.558Z,1022.4
2017-12-16T00:36:57.292Z,1022.3
2017-12-16T00:37:59.033Z,1022.3
2017-12-16T00:39:00.770Z,1022.3
2017-12-16T00:40:02.513Z,1022.3
2017-12-16T00:41:04.263Z,1022.3
2017-12-16T00:42:06.164Z,1022.3
2017-12-16T00:43:07.977Z,1022.3
2017-12-16T00:44:09.729Z,1022.3
2017-12-16T00:45:11.569Z,1022.3
2017-12-16T00:46:13.326Z,1022.3
2017-12-16T00:47:15.061Z,1022.3
2017-12-16T00:48:16.824Z,1022.3
2017-12-16T00:49:18.563Z,1022.3
2017-12-16T00:50:20.334Z,1022.3
2017-12-16T00:51:22.140Z,1022.3
2017-12-16T00:52:23.905Z,1022.3
2017-12-16T00:53:25.637Z,1022.3
2017-12-16T00:54:27.390Z,1022.3
2017-12-16T00:55:29.178Z,1022.3
2017-12-16T00:56:30.959Z,1022.3
2017-12-16T00:57:32.723Z,1022.3
2017-12-16T00:58:34.515Z,1022.4
2017-12-16T00:59:36.273Z,1022.3
2017-12-16T01:00:38.049Z,1022.3
2017-12-16T01:01:39.770Z,1022.3
2017-12-16T01:02:41.499Z,1022.4
2017-12-16T01:03:43.260Z,1022.4
2017-12-16T01:04:45.074Z,1022.4
2017-12-16T01:05:46.812Z,1022.4
2017-12-16T01:06:48.583Z,1022.4
2017-12-16T01:07:50.348Z,1022.4
2017-12-16T01:08:52.196Z,1022.4
2017-12-16T01:09:53.924Z,1022.3
2017-12-16T01:10:55.622Z,1022.3
2017-12-16T01:11:57.344Z,1022.3
2017-12-16T01:12:59.063Z,1022.3
2017-12-16T01:14:00.788Z,1022.3
2017-12-16T01:15:02.502Z,1022.3
2017-12-16T01:16:04.316Z,1022.3
2017-12-16T01:17:06.054Z,1022.3
2017-12-16T01:18:07.872Z,1022.3
2017-12-16T01:19:09.594Z,1022.3
2017-12-16T01:20:11.315Z,1022.3
2017-12-16T01:21:13.071Z,1022.4
2017-12-16T01:22:14.830Z,1022.4
2017-12-16T01:23:16.549Z,1022.4
2017-12-16T01:24:18.288Z,1022.4
2017-12-16T01:25:20.005Z,1022.4
2017-12-16T01:26:21.733Z,1022.4
2017-12-16T01:27:23.450Z,1022.4
2017-12-16T01:28:25.230Z,1022.4
2017-12-16T01:29:26.954Z,1022.4
2017-12-16T01:30:28.690Z,1022.4
2017-12-16T01:31:30.423Z,1022.4
2017-12-16T01:32:32.181Z,1022.4
2017-12-16T01:33:33.914Z,1022.3
2017-12-16T01:34:35.710Z,1022.3
2017-12-16T01:35:37.430Z,1022.4
2017-12-16T01:36:39.154Z,1022.3
2017-12-16T01:37:40.899Z,1022.3
2017-12-16T01:38:42.660Z,1022.3
2017-12-16T01:39:44.409Z,1022.3
2017-12-16T01:40:46.171Z,1022.4
2017-12-16T01:41:47.925Z,1022.4
2017-12-16T01:42:49.706Z,1022.4
2017-12-16T01:43:51.405Z,1022.4
2017-12-16T01:44:53.126Z,1022.4
2017-12-16T01:45:54.905Z,1022.4
2017-12-16T01:46:56.702Z,1022.4
2017-12-16T01:47:59.066Z,1022.4
2017-12-16T01:49:00.837Z,1022.4
2017-12-16T01:50:02.560Z,1022.4
2017-12-16T01:51:04.272Z,1022.4
2017-12-16T01:52:05.975Z,1022.4
2017-12-16T01:53:07.761Z,1022.4
2017-12-16T01:54:09.464Z,1022.5
2017-12-16T01:55:11.181Z,1022.5
2017-12-16T01:56:12.912Z,1022.5
2017-12-16T01:57:14.647Z,1022.5
2017-12-16T01:58:16.410Z,1022.5
2017-12-16T01:59:18.126Z,1022.5
2017-12-16T02:00:19.866Z,1022.5
2017-12-16T02:01:21.608Z,1022.5
2017-12-16T02:02:23.320Z,1022.5
2017-12-16T02:03:25.043Z,1022.4
2017-12-16T02:04:26.738Z,1022.4
2017-12-16T02:05:28.475Z,1022.5
2017-12-16T02:06:30.184Z,1022.5
2017-12-16T02:07:31.902Z,1022.5
2017-12-16T02:08:33.648Z,1022.5
2017-12-16T02:09:35.362Z,1022.5
2017-12-16T02:10:37.123Z,1022.5
2017-12-16T02:11:38.829Z,1022.5
2017-12-16T02:12:40.550Z,1022.5
2017-12-16T02:13:42.275Z,1022.5
2017-12-16T02:14:44.003Z,1022.5
2017-12-16T02:15:45.750Z,1022.6
2017-12-16T02:16:47.476Z,1022.5
2017-12-16T02:17:49.195Z,1022.6
2017-12-16T02:18:50.923Z,1022.6
2017-12-16T02:19:52.650Z,1022.7
2017-12-16T02:20:54.367Z,1022.7
2017-12-16T02:21:56.076Z,1022.7
2017-12-16T02:22:57.825Z,1022.7
2017-12-16T02:23:59.509Z,1022.8
2017-12-16T02:25:01.240Z,1022.7
2017-12-16T02:26:02.950Z,1022.7
2017-12-16T02:27:04.651Z,1022.7
2017-12-16T02:28:06.375Z,1022.8
2017-12-16T02:29:08.156Z,1022.8
2017-12-16T02:30:09.870Z,1022.8
2017-12-16T02:31:11.595Z,1022.8
2017-12-16T02:32:13.335Z,1022.8
2017-12-16T02:33:15.106Z,1022.9
2017-12-16T02:34:16.872Z,1022.9
2017-12-16T02:35:18.582Z,1022.9
2017-12-16T02:36:20.316Z,1022.9
2017-12-16T02:37:22.030Z,1022.9
2017-12-16T02:38:23.722Z,1022.9
2017-12-16T02:39:25.449Z,1023.0
2017-12-16T02:40:27.206Z,1022.9
2017-12-16T02:41:28.972Z,1022.9
2017-12-16T02:42:30.688Z,1022.9
2017-12-16T02:43:32.404Z,1022.9
2017-12-16T02:44:34.123Z,1022.9
2017-12-16T02:45:35.824Z,1022.9
2017-12-16T02:46:37.562Z,1022.9
2017-12-16T02:47:39.270Z,1022.9
2017-12-16T02:48:40.999Z,1022.9
2017-12-16T02:49:42.701Z,1022.9
2017-12-16T02:50:44.392Z,1022.9
2017-12-16T02:51:46.109Z,1022.9
2017-12-16T02:52:47.845Z,1022.9
2017-12-16T02:53:49.561Z,1022.9
2017-12-16T02:54:51.284Z,1023.0
2017-12-16T02:55:52.989Z,1023.0
2017-12-16T02:56:54.703Z,1022.9
2017-12-16T02:57:56.445Z,1022.9
2017-12-16T02:58:58.181Z,1022.9
2017-12-16T02:59:59.880Z,1022.9
2017-12-16T03:01:01.575Z,1022.9
2017-12-16T03:02:03.278Z,1022.9
2017-12-16T03:03:05.004Z,1022.9
2017-12-16T03:04:06.741Z,1022.9
2017-12-16T03:05:08.563Z,1022.9
2017-12-16T03:06:10.328Z,1022.9
2017-12-16T03:07:12.105Z,1023.0
2017-12-16T03:08:13.813Z,1023.0
2017-12-16T03:09:15.555Z,1023.0
2017-12-16T03:10:17.265Z,1023.0
2017-12-16T03:11:18.992Z,1022.9
2017-12-16T03:12:20.695Z,1023.0
2017-12-16T03:13:22.432Z,1023.0
2017-12-16T03:14:24.166Z,1022.9
2017-12-16T03:15:26.122Z,1023.0
2017-12-16T03:16:27.838Z,1023.0
2017-12-16T03:17:29.644Z,1023.0
2017-12-16T03:18:31.449Z,1023.0
2017-12-16T03:19:33.175Z,1023.0
2017-12-16T03:20:34.950Z,1023.0
2017-12-16T03:21:36.669Z,1023.0
2017-12-16T03:22:38.392Z,1023.0
2017-12-16T03:23:40.181Z,1023.1
2017-12-16T03:24:41.893Z,1023.0
2017-12-16T03:25:43.615Z,1023.0
2017-12-16T03:26:45.313Z,1023.0
2017-12-16T03:27:47.030Z,1023.0
2017-12-16T03:28:48.747Z,1023.1
2017-12-16T03:29:50.495Z,1023.1
2017-12-16T03:30:52.247Z,1023.0
2017-12-16T03:31:53.976Z,1023.1
2017-12-16T03:32:55.709Z,1023.1
2017-12-16T03:33:57.451Z,1023.1
2017-12-16T03:34:59.153Z,1023.1
2017-12-16T03:36:00.879Z,1023.1
2017-12-16T03:37:02.601Z,1023.1
2017-12-16T03:38:04.395Z,1023.0
2017-12-16T03:39:06.115Z,1023.0
2017-12-16T03:40:07.845Z,1023.0
2017-12-16T03:41:09.660Z,1023.0
2017-12-16T03:42:11.389Z,1023.0
2017-12-16T03:43:13.117Z,1023.0
2017-12-16T03:44:14.849Z,1023.0
2017-12-16T03:45:16.600Z,1023.0
2017-12-16T03:46:18.319Z,1022.9
2017-12-16T03:47:20.091Z,1023.0
2017-12-16T03:48:21.810Z,1023.0
2017-12-16T03:49:23.531Z,1023.0
2017-12-16T03:50:25.314Z,1023.0
2017-12-16T03:51:27.123Z,1023.1
2017-12-16T03:52:28.851Z,1023.1
2017-12-16T03:53:30.585Z,1023.0
2017-12-16T03:54:32.296Z,1023.0
2017-12-16T03:55:34.018Z,1023.0
2017-12-16T03:56:35.802Z,1023.1
2017-12-16T03:57:37.544Z,1023.0
2017-12-16T03:58:39.274Z,1023.0
2017-12-16T03:59:41.047Z,1023.0
2017-12-16T04:00:42.769Z,1023.0
2017-12-16T04:01:44.486Z,1023.0
2017-12-16T04:02:46.218Z,1023.0
2017-12-16T04:03:47.945Z,1023.0
2017-12-16T04:04:49.647Z,1023.0
2017-12-16T04:05:51.340Z,1022.9
2017-12-16T04:06:53.056Z,1023.0
2017-12-16T04:07:54.763Z,1022.9
2017-12-16T04:08:56.518Z,1022.9
2017-12-16T04:09:58.246Z,1022.9
2017-12-16T04:10:59.990Z,1022.9
2017-12-16T04:12:01.676Z,1022.9
2017-12-16T04:13:03.368Z,1022.9
2017-12-16T04:14:05.070Z,1022.9
2017-12-16T04:15:06.786Z,1022.9
2017-12-16T04:16:08.498Z,1022.9
2017-12-16T04:17:10.277Z,1022.9
2017-12-16T04:18:11.992Z,1023.0
2017-12-16T04:19:13.729Z,1022.9
2017-12-16T04:20:15.443Z,1022.9
2017-12-16T04:21:17.168Z,1023.0
2017-12-16T04:22:18.893Z,1023.0
2017-12-16T04:23:20.626Z,1022.9
2017-12-16T04:24:22.333Z,1022.9
2017-12-16T04:25:24.039Z,1023.0
2017-12-16T04:26:25.770Z,1023.0
2017-12-16T04:27:27.493Z,1023.0
2017-12-16T04:28:29.182Z,1023.0
2017-12-16T04:29:30.882Z,1023.0
2017-12-16T04:30:32.605Z,1023.0
2017-12-16T04:31:34.344Z,1023.0
2017-12-16T04:32:36.052Z,1023.0
2017-12-16T04:33:37.790Z,1023.0
2017-12-16T04:34:39.511Z,1023.0
2017-12-16T04:35:41.218Z,1023.1
2017-12-16T04:36:42.951Z,1023.1
2017-12-16T04:37:44.664Z,1023.1
2017-12-16T04:38:46.421Z,1023.1
2017-12-16T04:39:48.130Z,1023.1
2017-12-16T04:40:49.875Z,1023.0
2017-12-16T04:41:51.592Z,1023.1
2017-12-16T04:42:53.316Z,1023.1
2017-12-16T04:43:55.032Z,1023.1
2017-12-16T04:44:56.745Z,1023.1
2017-12-16T04:45:58.444Z,1023.1
2017-12-16T04:47:00.157Z,1023.1
2017-12-16T04:48:01.877Z,1023.1
2017-12-16T04:49:03.593Z,1023.1
2017-12-16T04:50:05.267Z,1023.1
2017-12-16T04:51:07.613Z,1023.1
2017-12-16T04:52:09.317Z,1023.1
2017-12-16T04:53:11.048Z,1023.0
2017-12-16T04:54:12.770Z,1023.1
2017-12-16T04:55:14.502Z,1023.1
2017-12-16T04:56:16.227Z,1023.0
2017-12-16T04:57:18.006Z,1023.1
2017-12-16T04:58:19.735Z,1023.1
2017-12-16T04:59:21.445Z,1023.1
2017-12-16T05:00:23.169Z,1023.1
2017-12-16T05:01:24.889Z,1023.1
2017-12-16T05:02:26.592Z,1023.1
2017-12-16T05:03:28.334Z,1023.1
2017-12-16T05:04:30.054Z,1023.1
2017-12-16T05:05:31.765Z,1023.1
2017-12-16T05:06:33.491Z,1023.1
2017-12-16T05:07:35.239Z,1023.1
2017-12-16T05:08:36.977Z,1023.1
2017-12-16T05:09:38.725Z,1023.2
2017-12-16T05:10:40.448Z,1023.1
2017-12-16T05:11:42.164Z,1023.1
2017-12-16T05:12:43.872Z,1023.1
2017-12-16T05:13:45.600Z,1023.1
2017-12-16T05:14:47.366Z,1023.1
2017-12-16T05:15:49.074Z,1023.1
2017-12-16T05:16:50.787Z,1023.1
2017-12-16T05:17:52.507Z,1023.1
2017-12-16T05:18:54.241Z,1023.1
2017-12-16T05:19:56.006Z,1023.2
2017-12-16T05:20:57.719Z,1023.2
2017-12-16T05:21:59.451Z,1023.2
2017-12-16T05:23:01.221Z,1023.2
2017-12-16T05:24:02.964Z,1023.2
2017-12-16T05:25:04.687Z,1023.2
2017-12-16T05:26:06.401Z,1023.1
2017-12-16T05:27:08.114Z,1023.2
2017-12-16T05:28:09.842Z,1023.2
2017-12-16T05:29:11.560Z,1023.2
2017-12-16T05:30:13.286Z,1023.3
2017-12-16T05:31:15.007Z,1023.2
2017-12-16T05:32:16.756Z,1023.3
2017-12-16T05:33:18.493Z,1023.3
2017-12-16T05:34:20.194Z,1023.3
2017-12-16T05:35:21.919Z,1023.3
2017-12-16T05:36:23.682Z,1023.3
2017-12-16T05:37:25.437Z,1023.3
2017-12-16T05:38:27.166Z,1023.3
2017-12-16T05:39:28.856Z,1023.3
2017-12-16T05:40:30.561Z,1023.3
2017-12-16T05:41:32.277Z,1023.3
2017-12-16T05:42:34.006Z,1023.3
2017-12-16T05:43:35.768Z,1023.4
2017-12-16T05:44:37.495Z,1023.4
2017-12-16T05:45:39.214Z,1023.4
2017-12-16T05:46:40.943Z,1023.4
2017-12-16T05:47:42.625Z,1023.4
2017-12-16T05:48:44.337Z,1023.4
2017-12-16T05:49:46.062Z,1023.4
2017-12-16T05:50:47.780Z,1023.4
2017-12-16T05:51:49.482Z,1023.4
2017-12-16T05:52:51.199Z,1023.5
2017-12-16T05:53:52.917Z,1023.5
2017-12-16T05:54:54.610Z,1023.4
2017-12-16T05:55:56.357Z,1023.4
2017-12-16T05:56:58.053Z,1023.5
2017-12-16T05:57:59.762Z,1023.5
2017-12-16T05:59:01.470Z,1023.5
2017-12-16T06:00:03.191Z,1023.5
2017-12-16T06:01:04.891Z,1023.6
2017-12-16T06:02:06.733Z,1023.6
2017-12-16T06:03:08.440Z,1023.6
2017-12-16T06:04:10.160Z,1023.5
2017-12-16T06:05:11.880Z,1023.6
2017-12-16T06:06:13.601Z,1023.6
2017-12-16T06:07:15.340Z,1023.6
2017-12-16T06:08:17.081Z,1023.6
2017-12-16T06:09:18.795Z,1023.6
2017-12-16T06:10:20.545Z,1023.6
2017-12-16T06:11:22.267Z,1023.7
2017-12-16T06:12:23.974Z,1023.6
2017-12-16T06:13:25.668Z,1023.6
2017-12-16T06:14:27.392Z,1023.6
2017-12-16T06:15:29.267Z,1023.6
2017-12-16T06:16:30.967Z,1023.6
2017-12-16T06:17:32.673Z,1023.6
2017-12-16T06:18:34.404Z,1023.7
2017-12-16T06:19:36.110Z,1023.7
2017-12-16T06:20:37.825Z,1023.7
2017-12-16T06:21:39.583Z,1023.8
2017-12-16T06:22:41.318Z,1023.8
2017-12-16T06:23:43.164Z,1023.8
2017-12-16T06:24:44.882Z,1023.8
2017-12-16T06:25:46.590Z,1023.9
2017-12-16T06:26:48.306Z,1023.9
2017-12-16T06:27:50.049Z,1023.9
2017-12-16T06:28:51.764Z,1024.0
2017-12-16T06:29:53.481Z,1024.0
2017-12-16T06:30:55.207Z,1024.0
2017-12-16T06:31:56.924Z,1024.1
2017-12-16T06:32:58.639Z,1024.0
2017-12-16T06:34:00.395Z,1024.0
2017-12-16T06:35:02.156Z,1024.1
2017-12-16T06:36:03.905Z,1024.1
2017-12-16T06:37:05.629Z,1024.1
2017-12-16T06:38:07.353Z,1024.1
2017-12-16T06:39:09.062Z,1024.0
2017-12-16T06:40:10.805Z,1024.1
2017-12-16T06:41:12.536Z,1024.1
2017-12-16T06:42:14.401Z,1024.1
2017-12-16T06:43:17.063Z,1024.2
2017-12-16T06:44:18.794Z,1024.2
2017-12-16T06:45:20.564Z,1024.2
2017-12-16T06:46:22.282Z,1024.2
2017-12-16T06:47:23.995Z,1024.1
2017-12-16T06:48:25.722Z,1024.2
2017-12-16T06:49:27.447Z,1024.2
2017-12-16T06:50:29.344Z,1024.2
2017-12-16T06:51:31.059Z,1024.2
2017-12-16T06:52:32.776Z,1024.3
2017-12-16T06:53:34.477Z,1024.3
2017-12-16T06:54:36.209Z,1024.3
2017-12-16T06:55:37.916Z,1024.3
2017-12-16T06:56:39.619Z,1024.3
2017-12-16T06:57:41.416Z,1024.4
2017-12-16T06:58:43.162Z,1024.3
2017-12-16T06:59:45.019Z,1024.4
2017-12-16T07:00:46.717Z,1024.4
2017-12-16T07:01:48.405Z,1024.4
2017-12-16T07:02:50.103Z,1024.4
2017-12-16T07:03:51.806Z,1024.4
2017-12-16T07:04:53.542Z,1024.4
2017-12-16T07:05:55.266Z,1024.5
2017-12-16T07:06:56.975Z,1024.5
2017-12-16T07:07:58.731Z,1024.5
2017-12-16T07:09:00.430Z,1024.5
2017-12-16T07:10:02.166Z,1024.6
2017-12-16T07:11:03.883Z,1024.6
2017-12-16T07:12:05.578Z,1024.6
2017-12-16T07:13:07.279Z,1024.6
2017-12-16T07:14:09.056Z,1024.6
2017-12-16T07:15:10.754Z,1024.7
2017-12-16T07:16:12.460Z,1024.7
2017-12-16T07:17:14.160Z,1024.7
2017-12-16T07:18:15.867Z,1024.7
2017-12-16T07:19:17.584Z,1024.7
2017-12-16T07:20:19.335Z,1024.7
2017-12-16T07:21:21.061Z,1024.7
2017-12-16T07:22:22.756Z,1024.7
2017-12-16T07:23:24.457Z,1024.7
2017-12-16T07:24:26.190Z,1024.7
2017-12-16T07:25:27.951Z,1024.7
2017-12-16T07:26:29.643Z,1024.8
2017-12-16T07:27:31.351Z,1024.9
2017-12-16T07:28:33.092Z,1024.8
2017-12-16T07:29:34.801Z,1024.8
2017-12-16T07:30:36.593Z,1024.9
2017-12-16T07:31:38.328Z,1024.8
2017-12-16T07:32:40.055Z,1024.9
2017-12-16T07:33:41.781Z,1024.8
2017-12-16T07:34:43.508Z,1024.9
2017-12-16T07:35:45.215Z,1024.9
2017-12-16T07:36:46.936Z,1024.9
2017-12-16T07:37:48.673Z,1024.9
2017-12-16T07:38:50.354Z,1024.8
2017-12-16T07:39:52.077Z,1024.9
2017-12-16T07:40:53.807Z,1024.9
2017-12-16T07:41:55.563Z,1024.9
2017-12-16T07:42:57.342Z,1024.9
2017-12-16T07:43:59.087Z,1024.9
2017-12-16T07:45:00.811Z,1024.9
2017-12-16T07:46:02.509Z,1024.9
2017-12-16T07:47:04.226Z,1024.9
2017-12-16T07:48:05.934Z,1025.0
2017-12-16T07:49:07.635Z,1025.0
2017-12-16T07:50:09.338Z,1025.0
2017-12-16T07:51:11.045Z,1025.0
2017-12-16T07:52:12.777Z,1025.1
2017-12-16T07:53:14.507Z,1025.0
2017-12-16T07:54:16.260Z,1025.0
2017-12-16T07:55:18.598Z,1025.0
2017-12-16T07:56:21.528Z,1025.1
2017-12-16T07:57:23.306Z,1025.1
2017-12-16T07:58:25.352Z,1025.1
2017-12-16T07:59:27.118Z,1025.1
2017-12-16T08:00:28.929Z,1025.1
2017-12-16T08:01:30.691Z,1025.1
2017-12-16T08:02:40.043Z,1025.1
2017-12-16T08:03:41.765Z,1025.1
2017-12-16T08:04:43.823Z,1025.2
2017-12-16T08:05:45.573Z,1025.1
2017-12-16T08:06:47.665Z,1025.1
2017-12-16T08:07:49.431Z,1025.2
2017-12-16T08:08:51.214Z,1025.2
2017-12-16T08:09:52.993Z,1025.2
2017-12-16T08:10:54.727Z,1025.2
2017-12-16T08:11:56.511Z,1025.2
2017-12-16T08:12:58.329Z,1025.2
2017-12-16T08:14:00.157Z,1025.1
2017-12-16T08:15:01.906Z,1025.2
2017-12-16T08:16:03.681Z,1025.1
2017-12-16T08:17:05.511Z,1025.2
2017-12-16T08:18:07.335Z,1025.1
2017-12-16T08:19:09.079Z,1025.2
2017-12-16T08:20:10.920Z,1025.1
2017-12-16T08:21:12.728Z,1025.1
2017-12-16T08:22:14.495Z,1025.1
2017-12-16T08:23:16.297Z,1025.1
2017-12-16T08:24:18.106Z,1025.1
2017-12-16T08:25:19.906Z,1025.2
2017-12-16T08:26:21.676Z,1025.2
2017-12-16T08:27:23.422Z,1025.1
2017-12-16T08:28:25.159Z,1025.1
2017-12-16T08:29:26.877Z,1025.2
2017-12-16T08:30:28.677Z,1025.2
2017-12-16T08:31:30.426Z,1025.2
2017-12-16T08:32:32.705Z,1025.2
2017-12-16T08:33:34.476Z,1025.2
2017-12-16T08:34:37.132Z,1025.3
2017-12-16T08:35:38.903Z,1025.2
2017-12-16T08:36:40.669Z,1025.3
2017-12-16T08:37:42.437Z,1025.3
2017-12-16T08:38:44.221Z,1025.4
2017-12-16T08:39:47.937Z,1025.4
2017-12-16T08:40:49.723Z,1025.4
2017-12-16T08:41:51.511Z,1025.4
2017-12-16T08:42:53.330Z,1025.5
2017-12-16T08:43:55.122Z,1025.5
2017-12-16T08:44:56.909Z,1025.5
2017-12-16T08:45:58.676Z,1025.5
2017-12-16T08:47:00.477Z,1025.6
2017-12-16T08:48:02.248Z,1025.6
2017-12-16T08:49:04.207Z,1025.6
2017-12-16T08:50:06.021Z,1025.7
2017-12-16T08:51:07.824Z,1025.7
2017-12-16T08:52:09.596Z,1025.7
2017-12-16T08:53:11.428Z,1025.8
2017-12-16T08:54:13.274Z,1025.8
2017-12-16T08:55:15.022Z,1025.8
2017-12-16T08:56:16.791Z,1025.8
2017-12-16T08:57:18.524Z,1025.8
2017-12-16T08:58:20.285Z,1025.9
2017-12-16T08:59:22.049Z,1025.9
2017-12-16T09:00:23.881Z,1025.9
2017-12-16T09:01:25.642Z,1025.9
2017-12-16T09:02:27.421Z,1025.9
2017-12-16T09:03:29.172Z,1025.9
2017-12-16T09:04:30.961Z,1026.0
2017-12-16T09:05:32.723Z,1026.0
2017-12-16T09:06:34.479Z,1026.1
2017-12-16T09:07:36.223Z,1026.1
2017-12-16T09:08:37.980Z,1026.1
2017-12-16T09:09:39.770Z,1026.1
2017-12-16T09:10:41.526Z,1026.1
2017-12-16T09:11:43.359Z,1026.1
2017-12-16T09:12:58.901Z,1026.1
2017-12-16T09:14:05.499Z,1026.1
2017-12-16T09:15:08.635Z,1026.1
2017-12-16T09:16:11.145Z,1026.1
2017-12-16T09:17:12.886Z,1026.1
2017-12-16T09:18:15.285Z,1026.1
2017-12-16T09:19:17.122Z,1026.1
2017-12-16T09:20:18.852Z,1026.2
2017-12-16T09:21:21.242Z,1026.2
2017-12-16T09:22:22.985Z,1026.2
2017-12-16T09:23:24.767Z,1026.2
2017-12-16T09:24:26.597Z,1026.2
2017-12-16T09:25:28.402Z,1026.2
2017-12-16T09:26:30.214Z,1026.2
2017-12-16T09:27:31.976Z,1026.3
2017-12-16T09:28:33.788Z,1026.3
2017-12-16T09:29:35.903Z,1026.3
2017-12-16T09:30:37.741Z,1026.3
2017-12-16T09:31:39.505Z,1026.4
2017-12-16T09:32:41.615Z,1026.4
2017-12-16T09:33:43.391Z,1026.4
2017-12-16T09:34:45.168Z,1026.4
2017-12-16T09:35:47.013Z,1026.5
2017-12-16T09:36:48.826Z,1026.4
2017-12-16T09:37:51.769Z,1026.4
2017-12-16T09:38:53.529Z,1026.4
2017-12-16T09:39:55.212Z,1026.4
2017-12-16T09:40:57.381Z,1026.3
2017-12-16T09:41:59.705Z,1026.3
2017-12-16T09:43:01.513Z,1026.3
2017-12-16T09:44:03.330Z,1026.3
2017-12-16T09:45:05.106Z,1026.3
2017-12-16T09:46:06.944Z,1026.3
2017-12-16T09:47:08.727Z,1026.3
2017-12-16T09:48:10.479Z,1026.3
2017-12-16T09:49:12.252Z,1026.4
2017-12-16T09:50:13.998Z,1026.3
2017-12-16T09:51:15.737Z,1026.3
2017-12-16T09:52:17.491Z,1026.3
2017-12-16T09:53:19.376Z,1026.3
2017-12-16T09:54:21.141Z,1026.3
2017-12-16T09:55:22.896Z,1026.3
2017-12-16T09:56:24.651Z,1026.4
2017-12-16T09:57:26.403Z,1026.3
2017-12-16T09:58:28.194Z,1026.3
2017-12-16T09:59:29.927Z,1026.4
2017-12-16T10:00:31.678Z,1026.4
2017-12-16T10:01:33.752Z,1026.4
2017-12-16T10:02:35.503Z,1026.4
2017-12-16T10:03:37.248Z,1026.4
2017-12-16T10:04:38.992Z,1026.5
2017-12-16T10:05:40.754Z,1026.5
2017-12-16T10:06:42.532Z,1026.5
2017-12-16T10:07:44.541Z,1026.5
2017-12-16T10:08:46.462Z,1026.5
2017-12-16T10:09:50.911Z,1026.5
2017-12-16T10:10:55.799Z,1026.6
2017-12-16T10:11:58.062Z,1026.6
2017-12-16T10:12:59.748Z,1026.6
2017-12-16T10:14:01.499Z,1026.6
2017-12-16T10:15:03.337Z,1026.7
2017-12-16T10:16:05.036Z,1026.7
2017-12-16T10:17:06.795Z,1026.7
2017-12-16T10:18:08.531Z,1026.7
2017-12-16T10:19:10.298Z,1026.8
2017-12-16T10:20:12.046Z,1026.7
2017-12-16T10:21:13.827Z,1026.7
2017-12-16T10:22:15.608Z,1026.8
2017-12-16T10:23:17.362Z,1026.8
2017-12-16T10:24:19.141Z,1026.8
2017-12-16T10:25:20.910Z,1026.8
2017-12-16T10:26:22.735Z,1026.8
2017-12-16T10:27:24.464Z,1026.8
2017-12-16T10:28:26.222Z,1026.9
2017-12-16T10:29:27.948Z,1026.9
2017-12-16T10:30:29.719Z,1026.9
2017-12-16T10:31:31.484Z,1026.9
2017-12-16T10:32:33.238Z,1026.9
2017-12-16T10:33:34.983Z,1026.9
2017-12-16T10:34:36.735Z,1026.9
2017-12-16T10:35:38.505Z,1027.0
2017-12-16T10:36:40.446Z,1026.9
2017-12-16T10:37:42.234Z,1026.9
2017-12-16T10:38:44.094Z,1027.0
2017-12-16T10:39:45.899Z,1027.0
2017-12-16T10:40:47.672Z,1027.1
2017-12-16T10:41:49.475Z,1027.1
2017-12-16T10:42:51.277Z,1027.1
2017-12-16T10:43:53.060Z,1027.0
2017-12-16T10:44:54.819Z,1027.1
2017-12-16T10:45:56.589Z,1027.2
2017-12-16T10:46:58.350Z,1027.1
2017-12-16T10:48:00.107Z,1027.1
2017-12-16T10:49:01.974Z,1027.2
2017-12-16T10:50:03.752Z,1027.1
2017-12-16T10:51:05.525Z,1027.1
2017-12-16T10:52:07.295Z,1027.1
2017-12-16T10:53:09.097Z,1027.1
2017-12-16T10:54:10.833Z,1027.0
2017-12-16T10:55:12.577Z,1027.1
2017-12-16T10:56:14.291Z,1027.0
2017-12-16T10:57:16.026Z,1027.0
2017-12-16T10:58:17.763Z,1027.0
2017-12-16T10:59:19.472Z,1026.9
2017-12-16T11:00:21.260Z,1026.9
2017-12-16T11:01:23.044Z,1026.9
2017-12-16T11:02:24.790Z,1026.9
2017-12-16T11:03:26.542Z,1026.8
2017-12-16T11:04:28.286Z,1026.8
2017-12-16T11:05:29.994Z,1026.9
2017-12-16T11:06:31.725Z,1026.8
2017-12-16T11:07:33.435Z,1026.8
2017-12-16T11:08:35.163Z,1026.8
2017-12-16T11:09:36.888Z,1026.9
2017-12-16T11:10:38.606Z,1026.8
2017-12-16T11:11:40.374Z,1026.9
2017-12-16T11:12:42.110Z,1026.8
2017-12-16T11:13:43.838Z,1026.9
2017-12-16T11:14:45.557Z,1026.9
2017-12-16T11:15:47.281Z,1026.9
2017-12-16T11:16:48.995Z,1026.9
2017-12-16T11:17:50.733Z,1026.9
2017-12-16T11:18:52.500Z,1026.9
2017-12-16T11:19:54.302Z,1026.9
2017-12-16T11:20:56.022Z,1026.9
2017-12-16T11:21:57.753Z,1026.9
2017-12-16T11:22:59.505Z,1026.9
2017-12-16T11:24:01.223Z,1026.9
2017-12-16T11:25:02.999Z,1026.9
2017-12-16T11:26:04.723Z,1026.9
2017-12-16T11:27:06.466Z,1026.9
2017-12-16T11:28:08.180Z,1027.0
2017-12-16T11:29:09.932Z,1026.9
2017-12-16T11:30:11.656Z,1026.9
2017-12-16T11:31:13.395Z,1026.9
2017-12-16T11:32:15.115Z,1026.9
2017-12-16T11:33:16.869Z,1026.9
2017-12-16T11:34:18.581Z,1026.9
2017-12-16T11:35:20.323Z,1027.0
2017-12-16T11:36:22.052Z,1027.0
2017-12-16T11:37:23.807Z,1027.0
2017-12-16T11:38:25.542Z,1027.0
2017-12-16T11:39:27.275Z,1026.9
2017-12-16T11:40:28.992Z,1026.9
2017-12-16T11:41:30.719Z,1026.9
2017-12-16T11:42:32.457Z,1026.9
2017-12-16T11:43:34.196Z,1026.9
2017-12-16T11:44:35.921Z,1026.9
2017-12-16T11:45:37.713Z,1027.0
2017-12-16T11:46:39.395Z,1027.0
2017-12-16T11:47:41.117Z,1027.0
2017-12-16T11:48:42.875Z,1027.0
2017-12-16T11:49:44.627Z,1026.9
2017-12-16T11:50:46.384Z,1026.9
2017-12-16T11:51:48.153Z,1026.9
2017-12-16T11:52:49.918Z,1026.9
2017-12-16T11:53:51.646Z,1026.7
2017-12-16T11:54:53.398Z,1026.6
2017-12-16T11:55:55.145Z,1026.6
2017-12-16T11:56:56.874Z,1026.7
2017-12-16T11:57:58.604Z,1026.7
2017-12-16T11:59:00.351Z,1026.7
2017-12-16T12:00:02.093Z,1026.7
2017-12-16T12:01:03.829Z,1026.7
2017-12-16T12:02:05.596Z,1026.7
2017-12-16T12:03:07.327Z,1026.6
2017-12-16T12:04:09.131Z,1026.6
2017-12-16T12:05:10.878Z,1026.6
2017-12-16T12:06:12.613Z,1026.6
2017-12-16T12:07:14.348Z,1026.6
2017-12-16T12:08:16.171Z,1026.6
2017-12-16T12:09:17.917Z,1026.5
2017-12-16T12:10:19.659Z,1026.5
2017-12-16T12:11:21.444Z,1026.5
2017-12-16T12:12:23.186Z,1026.5
2017-12-16T12:13:24.908Z,1026.5
2017-12-16T12:14:26.689Z,1026.5
2017-12-16T12:15:28.426Z,1026.6
2017-12-16T12:16:30.192Z,1026.6
2017-12-16T12:17:31.951Z,1026.6
2017-12-16T12:18:33.683Z,1026.6
2017-12-16T12:19:35.440Z,1026.6
2017-12-16T12:20:37.166Z,1026.6
2017-12-16T12:21:38.916Z,1026.6
2017-12-16T12:22:40.676Z,1026.6
2017-12-16T12:23:42.463Z,1026.6
2017-12-16T12:24:44.190Z,1026.6
2017-12-16T12:25:45.952Z,1026.6
2017-12-16T12:26:47.697Z,1026.6
2017-12-16T12:27:49.409Z,1026.5
2017-12-16T12:28:51.146Z,1026.5
2017-12-16T12:29:52.873Z,1026.4
2017-12-16T12:30:54.624Z,1026.5
2017-12-16T12:31:56.355Z,1026.4
2017-12-16T12:32:58.098Z,1026.4
2017-12-16T12:33:59.826Z,1026.5
2017-12-16T12:35:01.570Z,1026.4
2017-12-16T12:36:03.299Z,1026.4
2017-12-16T12:37:05.025Z,1026.4
2017-12-16T12:38:06.761Z,1026.4
2017-12-16T12:39:08.550Z,1026.5
2017-12-16T12:40:10.339Z,1026.4
2017-12-16T12:41:12.085Z,1026.4
2017-12-16T12:42:13.854Z,1026.5
2017-12-16T12:43:15.614Z,1026.5
2017-12-16T12:44:17.422Z,1026.5
2017-12-16T12:45:19.228Z,1026.5
2017-12-16T12:46:21.030Z,1026.4
2017-12-16T12:47:22.760Z,1026.4
2017-12-16T12:48:24.507Z,1026.4
2017-12-16T12:49:26.256Z,1026.3
2017-12-16T12:50:27.990Z,1026.4
2017-12-16T12:51:29.739Z,1026.3